createdAt,value
2022-08-03T00:01:28.992Z,43.90
2022-08-03T00:03:55.758Z,43.84
2022-08-03T00:06:22.440Z,44.14
2022-08-03T00:08:49.257Z,44.09
2022-08-03T00:11:18.258Z,44.14
2022-08-03T00:13:44.829Z,44.55
2022-08-03T00:16:11.595Z,44.79
2022-08-03T00:18:38.328Z,44.71
2022-08-03T00:21:05.084Z,44.41
2022-08-03T00:23:51.437Z,44.83
2022-08-03T00:26:20.330Z,44.47
2022-08-03T00:28:46.934Z,44.78
2022-08-03T00:31:13.855Z,44.65
2022-08-03T00:33:59.150Z,44.85
2022-08-03T00:36:29.144Z,45.17
2022-08-03T00:38:56.318Z,45.29
2022-08-03T00:41:23.067Z,45.02
2022-08-03T00:43:49.944Z,45.22
2022-08-03T00:46:23.061Z,45.08
2022-08-03T00:48:52.729Z,45.20
2022-08-03T00:51:20.043Z,45.59
2022-08-03T00:53:46.663Z,45.29
2022-08-03T00:56:14.540Z,45.59
2022-08-03T00:58:41.151Z,45.70
2022-08-03T01:01:07.757Z,45.82
2022-08-03T01:03:34.553Z,45.43
2022-08-03T01:06:10.235Z,46.09
2022-08-03T01:08:36.789Z,46.12
2022-08-03T01:11:15.830Z,46.21
2022-08-03T01:14:02.068Z,46.23
2022-08-03T01:16:41.162Z,46.60
2022-08-03T01:19:28.016Z,46.32
2022-08-03T01:22:27.176Z,46.75
2022-08-03T01:24:56.934Z,46.72
2022-08-03T01:27:26.706Z,46.59
2022-08-03T01:30:06.958Z,46.56
2022-08-03T01:32:53.229Z,46.97
2022-08-03T01:35:38.751Z,47.15
2022-08-03T01:38:12.960Z,47.32
2022-08-03T01:40:40.026Z,47.50
2022-08-03T01:43:09.346Z,47.30
2022-08-03T01:45:35.882Z,47.30
2022-08-03T01:48:03.030Z,47.47
2022-08-03T01:50:32.223Z,46.54
2022-08-03T01:53:01.294Z,47.04
2022-08-03T01:55:28.341Z,47.20
2022-08-03T01:58:05.336Z,47.52
2022-08-03T02:00:36.244Z,47.46
2022-08-03T02:03:05.481Z,47.52
2022-08-03T02:05:32.336Z,47.02
2022-08-03T02:07:59.202Z,47.49
2022-08-03T02:10:34.323Z,47.54
2022-08-03T02:13:02.805Z,47.73
2022-08-03T02:15:29.674Z,47.77
2022-08-03T02:17:58.574Z,48.73
2022-08-03T02:20:25.164Z,48.25
2022-08-03T02:22:51.710Z,48.29
2022-08-03T02:25:18.476Z,47.99
2022-08-03T02:27:52.984Z,48.50
2022-08-03T02:30:20.735Z,48.71
2022-08-03T02:32:51.937Z,48.70
2022-08-03T02:35:18.572Z,49.04
2022-08-03T02:37:49.534Z,49.19
2022-08-03T02:40:21.772Z,50.27
2022-08-03T02:42:50.288Z,49.36
2022-08-03T02:45:16.898Z,50.62
2022-08-03T02:47:53.815Z,50.72
2022-08-03T02:50:21.493Z,50.41
2022-08-03T02:52:49.013Z,50.63
2022-08-03T02:55:15.545Z,50.49
2022-08-03T02:57:47.692Z,50.53
2022-08-03T03:00:19.380Z,50.58
2022-08-03T03:03:01.965Z,50.74
2022-08-03T03:05:55.414Z,50.57
2022-08-03T03:08:20.531Z,50.84
2022-08-03T03:10:55.693Z,50.65
2022-08-03T03:13:23.096Z,50.74
2022-08-03T03:15:52.024Z,50.66
2022-08-03T03:18:23.941Z,50.45
2022-08-03T03:20:54.372Z,49.96
2022-08-03T03:23:24.184Z,50.59
2022-08-03T03:25:53.347Z,50.71
2022-08-03T03:28:23.727Z,50.83
2022-08-03T03:30:53.088Z,50.73
2022-08-03T03:33:20.739Z,51.04
2022-08-03T03:35:52.156Z,50.59
2022-08-03T03:38:22.114Z,50.64
2022-08-03T03:40:48.652Z,51.23
2022-08-03T03:43:15.785Z,51.42
2022-08-03T03:45:44.976Z,51.23
2022-08-03T03:48:11.637Z,50.91
2022-08-03T03:50:40.978Z,51.73
2022-08-03T03:53:11.161Z,51.80
2022-08-03T03:55:59.019Z,51.40
2022-08-03T03:58:25.095Z,51.87
2022-08-03T04:00:53.936Z,52.07
2022-08-03T04:03:23.304Z,51.81
2022-08-03T04:06:08.472Z,51.60
2022-08-03T04:08:53.934Z,51.70
2022-08-03T04:11:27.458Z,52.12
2022-08-03T04:13:57.386Z,52.31
2022-08-03T04:16:29.419Z,52.31
2022-08-03T04:18:58.520Z,51.78
2022-08-03T04:21:25.195Z,52.58
2022-08-03T04:23:55.372Z,52.53
2022-08-03T04:26:22.652Z,52.53
2022-08-03T04:28:55.127Z,52.72
2022-08-03T04:31:23.079Z,51.69
2022-08-03T04:33:51.382Z,51.83
2022-08-03T04:36:20.219Z,52.56
2022-08-03T04:39:09.336Z,52.31
2022-08-03T04:42:07.188Z,53.51
2022-08-03T04:44:28.373Z,53.25
2022-08-03T04:46:57.522Z,53.15
2022-08-03T04:49:24.248Z,53.45
2022-08-03T04:51:50.975Z,54.85
2022-08-03T04:54:17.614Z,54.44
2022-08-03T04:56:44.665Z,54.72
2022-08-03T04:59:13.441Z,55.02
2022-08-03T05:01:41.034Z,56.55
2022-08-03T05:04:07.735Z,55.22
2022-08-03T05:06:34.490Z,55.43
2022-08-03T05:09:01.988Z,55.86
2022-08-03T05:11:30.977Z,55.32
2022-08-03T05:13:59.944Z,55.42
2022-08-03T05:16:28.943Z,55.37
2022-08-03T05:18:58.680Z,55.39
2022-08-03T05:21:25.437Z,55.42
2022-08-03T05:24:08.237Z,55.15
2022-08-03T05:26:34.840Z,55.24
2022-08-03T05:29:04.523Z,55.19
2022-08-03T05:31:38.184Z,54.98
2022-08-03T05:34:07.122Z,55.63
2022-08-03T05:36:33.691Z,55.17
2022-08-03T05:39:02.760Z,55.21
2022-08-03T05:41:36.986Z,55.68
2022-08-03T05:44:06.749Z,55.26
2022-08-03T05:46:33.825Z,56.00
2022-08-03T05:49:00.476Z,55.30
2022-08-03T05:51:28.918Z,54.93
2022-08-03T05:53:55.505Z,55.22
2022-08-03T05:56:25.918Z,54.78
2022-08-03T05:58:57.781Z,54.83
2022-08-03T06:01:24.978Z,55.14
2022-08-03T06:03:52.229Z,54.30
2022-08-03T06:06:22.295Z,55.30
2022-08-03T06:08:48.982Z,54.87
2022-08-03T06:11:16.661Z,54.99
2022-08-03T06:13:43.486Z,54.49
2022-08-03T06:16:10.384Z,54.54
2022-08-03T06:18:37.098Z,54.03
2022-08-03T06:21:14.333Z,53.85
2022-08-03T06:23:54.157Z,53.50
2022-08-03T06:26:22.559Z,54.08
2022-08-03T06:28:53.685Z,53.23
2022-08-03T06:31:26.130Z,53.10
2022-08-03T06:34:33.070Z,52.99
2022-08-03T06:36:48.549Z,53.27
2022-08-03T06:39:15.438Z,52.68
2022-08-03T06:41:45.092Z,52.37
2022-08-03T06:44:14.250Z,51.93
2022-08-03T06:46:43.447Z,52.33
2022-08-03T06:49:13.621Z,51.66
2022-08-03T06:52:03.426Z,52.09
2022-08-03T06:54:27.466Z,51.92
2022-08-03T06:56:54.296Z,51.98
2022-08-03T07:00:07.598Z,52.21
2022-08-03T07:02:10.561Z,52.04
2022-08-03T07:04:37.421Z,51.72
2022-08-03T07:07:04.169Z,51.50
2022-08-03T07:09:33.301Z,51.24
2022-08-03T07:12:02.866Z,51.25
2022-08-03T07:14:29.644Z,51.04
2022-08-03T07:16:57.861Z,51.02
2022-08-03T07:19:24.856Z,50.49
2022-08-03T07:21:51.607Z,50.28
2022-08-03T07:24:20.346Z,49.55
2022-08-03T07:26:49.374Z,50.04
2022-08-03T07:29:16.160Z,49.60
2022-08-03T07:31:42.816Z,48.88
2022-08-03T07:34:09.413Z,47.78
2022-08-03T07:36:38.717Z,48.19
2022-08-03T07:39:14.702Z,48.23
2022-08-03T07:41:47.805Z,48.25
2022-08-03T07:44:17.747Z,48.45
2022-08-03T07:46:46.142Z,47.90
2022-08-03T07:49:13.468Z,46.78
2022-08-03T07:51:40.288Z,46.98
2022-08-03T07:54:07.723Z,46.75
2022-08-03T07:56:34.356Z,46.93
2022-08-03T07:59:02.422Z,46.29
2022-08-03T08:01:29.225Z,45.98
2022-08-03T08:03:55.829Z,46.27
2022-08-03T08:06:22.425Z,46.07
2022-08-03T08:08:49.200Z,44.96
2022-08-03T08:11:15.879Z,44.89
2022-08-03T08:13:42.428Z,45.23
2022-08-03T08:16:12.647Z,45.27
2022-08-03T08:18:39.354Z,45.47
2022-08-03T08:21:06.364Z,45.98
2022-08-03T08:23:41.948Z,44.86
2022-08-03T08:26:12.138Z,43.81
2022-08-03T08:28:38.681Z,43.69
2022-08-03T08:31:05.216Z,43.53
2022-08-03T08:34:01.020Z,43.84
2022-08-03T08:36:21.258Z,44.20
2022-08-03T08:38:48.081Z,44.01
2022-08-03T08:41:15.055Z,44.53
2022-08-03T08:43:44.840Z,43.94
2022-08-03T08:46:12.030Z,43.08
2022-08-03T08:48:40.734Z,43.35
2022-08-03T08:51:07.272Z,43.07
2022-08-03T08:53:37.416Z,42.18
2022-08-03T08:56:04.203Z,42.44
2022-08-03T08:58:35.278Z,42.29
2022-08-03T09:01:02.043Z,42.28
2022-08-03T09:03:29.582Z,42.62
2022-08-03T09:05:58.394Z,42.24
2022-08-03T09:08:25.571Z,41.24
2022-08-03T09:10:54.896Z,41.74
2022-08-03T09:13:24.221Z,41.04
2022-08-03T09:16:08.816Z,40.31
2022-08-03T09:18:35.523Z,39.84
2022-08-03T09:21:31.574Z,39.74
2022-08-03T09:24:03.818Z,39.74
2022-08-03T09:26:36.263Z,39.80
2022-08-03T09:29:11.229Z,40.21
2022-08-03T09:31:45.915Z,39.56
2022-08-03T09:34:13.371Z,39.53
2022-08-03T09:36:49.940Z,39.95
2022-08-03T09:39:17.501Z,39.67
2022-08-03T09:41:45.207Z,39.10
2022-08-03T09:44:24.158Z,38.14
2022-08-03T09:46:54.710Z,39.52
2022-08-03T09:49:21.932Z,38.89
2022-08-03T09:52:33.933Z,38.10
2022-08-03T09:54:36.368Z,37.76
2022-08-03T09:57:03.608Z,37.88
2022-08-03T09:59:33.359Z,36.94
2022-08-03T10:02:02.484Z,36.45
2022-08-03T10:04:29.045Z,36.31
2022-08-03T10:07:03.354Z,36.83
2022-08-03T10:09:29.993Z,36.47
2022-08-03T10:11:59.933Z,35.15
2022-08-03T10:14:30.354Z,34.99
2022-08-03T10:16:56.960Z,34.40
2022-08-03T10:19:26.429Z,34.87
2022-08-03T10:21:56.997Z,35.76
2022-08-03T10:24:25.268Z,34.60
2022-08-03T10:26:51.896Z,35.07
2022-08-03T10:29:21.641Z,35.43
2022-08-03T10:31:55.926Z,34.55
2022-08-03T10:34:29.316Z,33.86
2022-08-03T10:36:57.316Z,33.19
2022-08-03T10:39:24.195Z,34.41
2022-08-03T10:41:54.677Z,33.78
2022-08-03T10:44:25.205Z,32.23
2022-08-03T10:46:54.330Z,32.62
2022-08-03T10:49:34.379Z,32.77
2022-08-03T10:52:02.597Z,31.69
2022-08-03T10:54:57.238Z,31.37
2022-08-03T10:57:42.373Z,31.89
2022-08-03T11:00:10.101Z,31.90
2022-08-03T11:02:58.157Z,29.86
2022-08-03T11:05:25.298Z,30.05
2022-08-03T11:07:54.471Z,31.18
2022-08-03T11:10:31.653Z,29.85
2022-08-03T11:13:09.994Z,30.22
2022-08-03T11:15:42.483Z,29.50
2022-08-03T11:18:29.740Z,30.37
2022-08-03T11:21:01.602Z,30.95
2022-08-03T11:24:04.050Z,30.44
2022-08-03T11:26:27.588Z,30.65
2022-08-03T11:28:54.256Z,30.79
2022-08-03T11:31:48.214Z,30.89
2022-08-03T11:34:11.329Z,30.19
2022-08-03T11:36:56.412Z,29.58
2022-08-03T11:39:25.600Z,28.62
2022-08-03T11:41:52.635Z,27.93
2022-08-03T11:44:37.836Z,29.17
2022-08-03T11:47:05.127Z,28.59
2022-08-03T11:49:31.781Z,29.18
2022-08-03T11:51:58.380Z,28.94
2022-08-03T11:54:25.827Z,28.21
2022-08-03T11:56:52.379Z,28.18
2022-08-03T11:59:22.234Z,28.77
2022-08-03T12:01:49.498Z,28.06
2022-08-03T12:04:19.100Z,27.88
2022-08-03T12:06:58.673Z,26.95
2022-08-03T12:09:25.235Z,26.48
2022-08-03T12:12:00.674Z,25.73
2022-08-03T12:14:48.941Z,26.03
2022-08-03T12:17:19.776Z,24.26
2022-08-03T12:19:46.646Z,24.44
2022-08-03T12:22:13.708Z,22.85
2022-08-03T12:24:43.665Z,21.95
2022-08-03T12:27:12.847Z,22.17
2022-08-03T12:29:39.515Z,21.12
2022-08-03T12:32:06.049Z,21.54
2022-08-03T12:34:47.337Z,20.74
2022-08-03T12:37:22.120Z,20.34
2022-08-03T12:40:02.074Z,21.05
2022-08-03T12:42:35.533Z,20.55
2022-08-03T12:45:20.660Z,21.78
2022-08-03T12:47:57.453Z,22.03
2022-08-03T12:50:26.770Z,21.80
2022-08-03T12:52:53.444Z,21.24
2022-08-03T12:55:22.677Z,20.09
2022-08-03T12:57:49.424Z,18.23
2022-08-03T13:00:21.533Z,17.62
2022-08-03T13:03:39.186Z,18.77
2022-08-03T13:06:01.093Z,17.54
2022-08-03T13:08:27.652Z,17.26
2022-08-03T13:10:54.188Z,15.94
2022-08-03T13:13:37.806Z,17.24
2022-08-03T13:16:04.588Z,17.39
2022-08-03T13:18:33.747Z,17.83
2022-08-03T13:21:02.948Z,16.67
2022-08-03T13:23:29.729Z,15.99
2022-08-03T13:25:59.730Z,15.39
2022-08-03T13:28:26.431Z,15.52
2022-08-03T13:30:56.164Z,15.11
2022-08-03T13:33:27.666Z,14.73
2022-08-03T13:35:56.755Z,14.76
2022-08-03T13:38:27.143Z,14.51
2022-08-03T13:40:54.113Z,16.02
2022-08-03T13:43:23.361Z,15.64
2022-08-03T13:45:57.693Z,15.74
2022-08-03T13:48:36.765Z,16.14
2022-08-03T13:51:22.028Z,15.65
2022-08-03T13:53:49.542Z,14.75
2022-08-03T13:56:19.010Z,14.19
2022-08-03T13:58:45.658Z,12.88
2022-08-03T14:01:12.516Z,12.95
2022-08-03T14:03:39.124Z,13.51
2022-08-03T14:06:08.549Z,13.19
2022-08-03T14:08:37.554Z,14.17
2022-08-03T14:11:06.405Z,14.22
2022-08-03T14:13:33.866Z,14.31
2022-08-03T14:16:01.613Z,13.88
2022-08-03T14:18:33.545Z,12.85
2022-08-03T14:21:05.986Z,12.52
2022-08-03T14:23:33.688Z,12.70
2022-08-03T14:26:02.947Z,12.15
2022-08-03T14:28:29.543Z,12.05
2022-08-03T14:31:00.861Z,11.45
2022-08-03T14:33:29.870Z,11.26
2022-08-03T14:35:56.668Z,11.22
2022-08-03T14:38:24.118Z,11.59
2022-08-03T14:40:53.227Z,10.45
2022-08-03T14:43:23.015Z,11.60
2022-08-03T14:45:52.343Z,11.75
2022-08-03T14:50:33.074Z,10.78
2022-08-03T14:51:16.436Z,11.56
2022-08-03T14:53:43.045Z,11.94
2022-08-03T14:56:12.359Z,10.90
2022-08-03T14:58:43.394Z,11.04
2022-08-03T15:02:02.350Z,12.18
2022-08-03T15:03:59.199Z,13.63
2022-08-03T15:06:28.895Z,14.15
2022-08-03T15:09:21.611Z,13.93
2022-08-03T15:11:42.195Z,14.41
2022-08-03T15:14:09.530Z,14.47
2022-08-03T15:16:37.051Z,15.08
2022-08-03T15:20:02.795Z,14.92
2022-08-03T15:21:56.312Z,16.03
2022-08-03T15:24:22.923Z,15.76
2022-08-03T15:26:53.354Z,15.66
2022-08-03T15:30:07.537Z,15.08
2022-08-03T15:32:09.420Z,15.67
2022-08-03T15:34:38.577Z,14.38
2022-08-03T15:37:16.187Z,14.94
2022-08-03T15:39:59.308Z,14.04
2022-08-03T15:42:27.024Z,14.63
2022-08-03T15:44:54.487Z,14.33
2022-08-03T15:47:21.637Z,13.72
2022-08-03T15:49:48.536Z,15.02
2022-08-03T15:52:15.165Z,14.62
2022-08-03T15:54:42.186Z,15.43
2022-08-03T15:57:08.722Z,15.79
2022-08-03T15:59:35.260Z,16.37
2022-08-03T16:02:04.572Z,17.20
2022-08-03T16:04:31.357Z,17.49
2022-08-03T16:07:00.324Z,18.19
2022-08-03T16:09:43.496Z,17.33
2022-08-03T16:12:16.166Z,17.69
2022-08-03T16:14:52.973Z,18.39
2022-08-03T16:17:24.307Z,19.08
2022-08-03T16:19:55.202Z,18.88
2022-08-03T16:22:22.208Z,19.49
2022-08-03T16:24:53.292Z,19.64
2022-08-03T16:27:37.143Z,19.83
2022-08-03T16:30:09.488Z,20.18
2022-08-03T16:32:41.018Z,20.45
2022-08-03T16:35:08.021Z,20.05
2022-08-03T16:37:39.218Z,20.68
2022-08-03T16:40:08.845Z,21.13
2022-08-03T16:42:44.366Z,20.87
2022-08-03T16:45:13.472Z,21.69
2022-08-03T16:47:42.440Z,21.00
2022-08-03T16:50:15.446Z,21.31
2022-08-03T16:52:47.031Z,22.05
2022-08-03T16:55:15.923Z,22.34
2022-08-03T16:57:58.555Z,22.96
2022-08-03T17:00:34.172Z,23.00
2022-08-03T17:03:12.489Z,23.83
2022-08-03T17:05:49.574Z,24.24
2022-08-03T17:08:26.501Z,24.16
2022-08-03T17:10:54.448Z,24.27
2022-08-03T17:13:27.637Z,25.04
2022-08-03T17:16:06.336Z,25.32
2022-08-03T17:18:42.129Z,25.76
2022-08-03T17:21:14.306Z,25.40
2022-08-03T17:24:00.047Z,25.60
2022-08-03T17:26:30.384Z,26.16
2022-08-03T17:28:58.438Z,26.49
2022-08-03T17:31:31.355Z,26.62
2022-08-03T17:34:00.488Z,26.51
2022-08-03T17:36:41.794Z,26.61
2022-08-03T17:39:21.110Z,27.43
2022-08-03T17:42:03.755Z,27.06
2022-08-03T17:44:41.460Z,27.62
2022-08-03T17:47:12.844Z,27.60
2022-08-03T17:49:48.654Z,28.21
2022-08-03T17:52:27.615Z,27.89
2022-08-03T17:55:57.428Z,28.02
2022-08-03T17:58:02.470Z,28.48
2022-08-03T18:00:51.571Z,28.29
2022-08-03T18:03:29.198Z,28.81
2022-08-03T18:06:10.901Z,29.05
2022-08-03T18:08:43.542Z,28.93
2022-08-03T18:11:14.493Z,28.94
2022-08-03T18:13:57.670Z,29.15
2022-08-03T18:16:28.133Z,30.48
2022-08-03T18:18:57.391Z,29.87
2022-08-03T18:21:26.052Z,30.15
2022-08-03T18:23:53.331Z,30.19
2022-08-03T18:26:26.123Z,30.50
2022-08-03T18:28:55.316Z,30.59
2022-08-03T18:32:00.548Z,30.87
2022-08-03T18:34:19.401Z,31.13
2022-08-03T18:36:57.828Z,31.07
2022-08-03T18:39:25.242Z,31.29
2022-08-03T18:41:54.483Z,31.41
2022-08-03T18:44:37.466Z,32.49
2022-08-03T18:47:16.317Z,32.22
2022-08-03T18:49:46.552Z,32.22
2022-08-03T18:52:21.786Z,32.24
2022-08-03T18:55:06.540Z,31.73
2022-08-03T18:57:44.837Z,31.85
2022-08-03T19:00:16.064Z,32.03
2022-08-03T19:02:48.962Z,31.72
2022-08-03T19:05:20.415Z,31.82
2022-08-03T19:08:03.387Z,32.23
2022-08-03T19:10:34.676Z,32.01
2022-08-03T19:13:04.292Z,32.32
2022-08-03T19:15:36.791Z,32.38
2022-08-03T19:18:11.008Z,33.00
2022-08-03T19:20:37.781Z,32.97
2022-08-03T19:23:04.583Z,33.16
2022-08-03T19:25:35.616Z,33.59
2022-08-03T19:28:06.115Z,33.97
2022-08-03T19:30:40.145Z,33.75
2022-08-03T19:33:10.936Z,34.16
2022-08-03T19:35:55.306Z,34.36
2022-08-03T19:38:27.413Z,34.82
2022-08-03T19:40:57.119Z,34.98
2022-08-03T19:43:53.411Z,34.87
2022-08-03T19:46:21.289Z,34.95
2022-08-03T19:48:55.969Z,35.32
2022-08-03T19:51:27.002Z,35.07
2022-08-03T19:54:14.408Z,35.28
2022-08-03T19:56:42.491Z,35.32
2022-08-03T19:59:13.301Z,35.89
2022-08-03T20:01:50.986Z,36.34
2022-08-03T20:04:20.675Z,36.04
2022-08-03T20:06:47.856Z,36.47
2022-08-03T20:09:16.287Z,36.21
2022-08-03T20:11:43.895Z,36.69
2022-08-03T20:14:12.015Z,35.89
2022-08-03T20:16:50.003Z,35.30
2022-08-03T20:19:16.712Z,35.75
2022-08-03T20:21:51.721Z,35.37
2022-08-03T20:24:26.098Z,36.91
2022-08-03T20:26:53.722Z,36.42
2022-08-03T20:29:22.667Z,36.52
2022-08-03T20:32:09.306Z,36.05
2022-08-03T20:34:38.343Z,35.98
2022-08-03T20:37:05.411Z,36.29
2022-08-03T20:39:36.048Z,36.05
2022-08-03T20:42:03.955Z,35.64
2022-08-03T20:44:31.330Z,35.15
2022-08-03T20:47:00.762Z,36.28
2022-08-03T20:49:27.602Z,36.66
2022-08-03T20:51:54.228Z,36.33
2022-08-03T20:54:29.288Z,36.53
2022-08-03T20:56:58.127Z,36.70
2022-08-03T20:59:35.086Z,36.86
2022-08-03T21:02:19.519Z,36.52
2022-08-03T21:04:56.160Z,37.13
2022-08-03T21:07:23.126Z,37.57
2022-08-03T21:09:55.486Z,37.50
2022-08-03T21:12:26.928Z,37.47
2022-08-03T21:15:08.249Z,37.46
2022-08-03T21:17:41.879Z,37.64
2022-08-03T21:20:09.685Z,37.52
2022-08-03T21:22:39.229Z,38.38
2022-08-03T21:25:09.369Z,38.71
2022-08-03T21:27:39.323Z,37.96
2022-08-03T21:30:07.322Z,38.30
2022-08-03T21:32:36.765Z,37.41
2022-08-03T21:35:04.052Z,37.32
2022-08-03T21:37:30.713Z,37.66
2022-08-03T21:39:57.488Z,37.85
2022-08-03T21:42:26.751Z,37.77
2022-08-03T21:44:54.585Z,38.00
2022-08-03T21:47:21.828Z,37.76
2022-08-03T21:49:51.946Z,38.04
2022-08-03T21:52:32.984Z,36.89
2022-08-03T21:55:00.440Z,37.78
2022-08-03T21:57:27.221Z,37.87
2022-08-03T21:59:54.030Z,38.02
2022-08-03T22:02:24.705Z,38.22
2022-08-03T22:04:56.408Z,38.18
2022-08-03T22:07:30.100Z,37.94
2022-08-03T22:09:57.486Z,38.15
2022-08-03T22:12:24.753Z,38.66
2022-08-03T22:15:00.984Z,38.75
2022-08-03T22:17:55.263Z,38.81
2022-08-03T22:20:15.577Z,39.01
2022-08-03T22:22:44.589Z,39.12
2022-08-03T22:25:31.627Z,38.78
2022-08-03T22:27:59.225Z,39.12
2022-08-03T22:30:26.313Z,39.70
2022-08-03T22:32:53.586Z,40.07
2022-08-03T22:35:20.517Z,40.41
2022-08-03T22:37:49.791Z,40.44
2022-08-03T22:40:17.069Z,41.00
2022-08-03T22:42:49.371Z,40.89
2022-08-03T22:46:07.468Z,41.14
2022-08-03T22:48:08.155Z,40.07
2022-08-03T22:50:34.944Z,40.58
2022-08-03T22:53:01.500Z,40.37
2022-08-03T22:55:28.308Z,40.41
2022-08-03T22:57:56.475Z,39.70
2022-08-03T23:00:23.703Z,38.80
2022-08-03T23:02:50.341Z,39.02
2022-08-03T23:06:02.368Z,39.31
2022-08-03T23:08:09.907Z,39.37
2022-08-03T23:10:41.509Z,39.04
2022-08-03T23:13:10.659Z,38.83
2022-08-03T23:15:37.217Z,39.12
2022-08-03T23:18:03.998Z,39.41
2022-08-03T23:20:35.487Z,40.13
2022-08-03T23:23:05.728Z,40.54
2022-08-03T23:25:32.752Z,40.59
2022-08-03T23:28:05.689Z,40.64
2022-08-03T23:30:35.873Z,40.63
2022-08-03T23:33:02.414Z,40.64
2022-08-03T23:36:29.554Z,40.66
2022-08-03T23:38:39.085Z,40.88
2022-08-03T23:41:05.824Z,40.95
2022-08-03T23:43:52.227Z,40.98
2022-08-03T23:46:23.513Z,40.86
2022-08-03T23:48:53.809Z,41.12
2022-08-03T23:51:26.105Z,40.96
2022-08-03T23:54:04.236Z,41.11
2022-08-03T23:56:33.826Z,41.33
2022-08-03T23:59:04.185Z,41.46
